Time;durP1;ratioP1;P1;durP2;ratioP2;P2;SDS_P1;SDS_P2;PMS_P1;PMS_P2;Temp;Humidity;BMP_temperature;BMP_pressure;BME280_temperature;BME280_humidity;BME280_pressure;Samples;Min_cycle;Max_cycle;Signal;HPM_P1;HPM_P2
2023/10/17 00:00:17;;;;;;;;;;;15.00;88.00;;;;;;4176579;28;19963;-59
2023/10/17 00:02:59;;;;;;;;;;;15.00;88.00;;;;;;4181305;28;19932;-59
2023/10/17 00:05:41;;;;;;;;;;;15.00;87.90;;;;;;4181548;28;19946;-59
2023/10/17 00:08:25;;;;;;;;;;;15.00;87.90;;;;;;4203978;28;19960;-59
2023/10/17 00:11:14;;;;;;;;;;;15.00;87.90;;;;;;4187501;28;19935;-59
2023/10/17 00:14:07;;;;;;;;;;;15.00;87.90;;;;;;4191182;28;19935;-59
2023/10/17 00:16:49;;;;;;;;;;;15.00;87.90;;;;;;4189585;28;19998;-55
2023/10/17 00:19:31;;;;;;;;;;;15.00;87.80;;;;;;4187820;28;20013;-54
2023/10/17 00:22:17;;;;;;;;;;;15.00;87.80;;;;;;4199187;28;20333;-51
2023/10/17 00:25:09;;;;;;;;;;;14.90;87.80;;;;;;4188888;28;19931;-55
2023/10/17 00:27:51;;;;;;;;;;;14.90;87.80;;;;;;4186391;28;20001;-55
2023/10/17 00:30:32;;;;;;;;;;;14.90;87.80;;;;;;4175053;28;20125;-56
2023/10/17 00:33:15;;;;;;;;;;;14.90;87.80;;;;;;4180458;28;19931;-55
2023/10/17 00:35:57;;;;;;;;;;;14.90;87.80;;;;;;4197282;28;20314;-54
2023/10/17 00:38:43;;;;;;;;;;;14.90;87.80;;;;;;4185497;28;19931;-60
2023/10/17 00:41:29;;;;;;;;;;;14.90;88.60;;;;;;4174175;28;19932;-60
2023/10/17 00:44:14;;;;;;;;;;;14.90;87.70;;;;;;4182265;28;20058;-59
2023/10/17 00:46:55;;;;;;;;;;;14.90;87.70;;;;;;4201897;28;20389;-60
2023/10/17 00:49:40;;;;;;;;;;;14.90;88.60;;;;;;4200485;28;20089;-60
2023/10/17 00:52:25;;;;;;;;;;;14.80;87.60;;;;;;4201158;28;20290;-61
2023/10/17 00:55:11;;;;;;;;;;;14.90;87.70;;;;;;4202152;28;19931;-60
2023/10/17 00:57:54;;;;;;;;;;;14.80;87.70;;;;;;4200662;28;19974;-58
2023/10/17 01:00:39;;;;;;;;;;;14.80;87.60;;;;;;4168705;28;19931;-59
2023/10/17 01:03:20;;;;;;;;;;;14.80;87.60;;;;;;4171851;28;19935;-59
2023/10/17 01:06:13;;;;;;;;;;;14.80;88.50;;;;;;4170661;28;20318;-60
2023/10/17 01:08:54;;;;;;;;;;;14.80;87.70;;;;;;4170246;28;20406;-59
2023/10/17 01:11:38;;;;;;;;;;;14.80;87.70;;;;;;4187660;28;19931;-59
2023/10/17 01:14:20;;;;;;;;;;;14.80;87.60;;;;;;4186471;28;20410;-60
2023/10/17 01:17:05;;;;;;;;;;;14.80;87.60;;;;;;4191889;28;20314;-59
2023/10/17 01:19:46;;;;;;;;;;;14.80;87.70;;;;;;4192152;28;20013;-59
2023/10/17 01:22:32;;;;;;;;;;;14.80;88.50;;;;;;4188733;28;19936;-59
2023/10/17 01:25:24;;;;;;;;;;;14.80;87.60;;;;;;4176001;28;20073;-60
2023/10/17 01:28:06;;;;;;;;;;;14.80;88.50;;;;;;4181582;28;20406;-58
2023/10/17 01:30:48;;;;;;;;;;;14.70;88.50;;;;;;4189104;28;20026;-60
2023/10/17 01:33:30;;;;;;;;;;;14.70;87.70;;;;;;4189823;28;19935;-59
2023/10/17 01:36:12;;;;;;;;;;;14.70;87.60;;;;;;4188257;28;20345;-57
2023/10/17 01:38:54;;;;;;;;;;;14.70;88.50;;;;;;4206446;28;20061;-57
2023/10/17 01:41:38;;;;;;;;;;;14.70;87.70;;;;;;4201745;28;20165;-56
2023/10/17 01:44:19;;;;;;;;;;;14.70;87.70;;;;;;4189666;28;19973;-57
2023/10/17 01:47:00;;;;;;;;;;;14.70;87.80;;;;;;4190363;28;20398;-58
2023/10/17 01:49:40;;;;;;;;;;;14.60;88.20;;;;;;4187024;28;19935;-58
2023/10/17 01:52:21;;;;;;;;;;;14.60;88.50;;;;;;4189223;28;19931;-58
2023/10/17 01:55:09;;;;;;;;;;;14.60;88.50;;;;;;4199703;28;19931;-58
2023/10/17 01:57:54;;;;;;;;;;;14.60;88.40;;;;;;4191331;28;20329;-58
2023/10/17 02:00:38;;;;;;;;;;;14.60;88.40;;;;;;4188704;28;20369;-58
2023/10/17 02:03:19;;;;;;;;;;;14.60;88.40;;;;;;4197973;28;19930;-52
2023/10/17 02:05:59;;;;;;;;;;;14.60;88.30;;;;;;4178038;28;19936;-59
2023/10/17 02:08:41;;;;;;;;;;;14.60;88.30;;;;;;4173648;28;20062;-59
2023/10/17 02:11:26;;;;;;;;;;;14.60;88.30;;;;;;4187895;28;19981;-58
2023/10/17 02:14:09;;;;;;;;;;;14.60;88.30;;;;;;4196612;28;19959;-59
2023/10/17 02:16:49;;;;;;;;;;;14.60;88.30;;;;;;4197567;28;19935;-59
2023/10/17 02:19:32;;;;;;;;;;;14.50;88.30;;;;;;4190869;28;19935;-59
2023/10/17 02:22:16;;;;;;;;;;;14.50;88.30;;;;;;4202341;28;20405;-58
2023/10/17 02:24:57;;;;;;;;;;;14.50;88.30;;;;;;4216032;28;19935;-58
2023/10/17 02:27:39;;;;;;;;;;;14.50;88.40;;;;;;4204472;28;20396;-50
2023/10/17 02:30:22;;;;;;;;;;;14.50;88.40;;;;;;4216707;28;19935;-52
2023/10/17 02:33:11;;;;;;;;;;;14.50;88.40;;;;;;4193644;28;20001;-51
2023/10/17 02:36:04;;;;;;;;;;;14.50;88.40;;;;;;4188903;28;20295;-55
2023/10/17 02:38:45;;;;;;;;;;;14.50;88.50;;;;;;4185645;28;20087;-54
2023/10/17 02:41:28;;;;;;;;;;;14.50;88.50;;;;;;4193124;28;19935;-52
2023/10/17 02:44:09;;;;;;;;;;;14.50;88.40;;;;;;4175246;28;20063;-51
2023/10/17 02:46:58;;;;;;;;;;;14.40;88.40;;;;;;4188612;28;19932;-50
2023/10/17 02:49:39;;;;;;;;;;;14.40;88.30;;;;;;4191240;28;20436;-53
2023/10/17 02:52:20;;;;;;;;;;;14.40;88.40;;;;;;4172309;28;19940;-50
2023/10/17 02:55:05;;;;;;;;;;;14.40;88.50;;;;;;4171794;28;19989;-50
2023/10/17 02:57:46;;;;;;;;;;;14.40;88.50;;;;;;4185566;28;20390;-51
2023/10/17 03:00:33;;;;;;;;;;;14.40;88.50;;;;;;4204813;28;20054;-49
2023/10/17 03:03:19;;;;;;;;;;;14.40;88.40;;;;;;4205396;28;19931;-50
2023/10/17 03:06:00;;;;;;;;;;;14.40;88.40;;;;;;4200398;28;19931;-51
2023/10/17 03:08:41;;;;;;;;;;;14.40;88.40;;;;;;4192687;28;20378;-50
2023/10/17 03:11:35;;;;;;;;;;;14.40;88.50;;;;;;4205600;28;20077;-50
2023/10/17 03:14:19;;;;;;;;;;;14.40;88.50;;;;;;4204758;28;19931;-50
2023/10/17 03:16:59;;;;;;;;;;;14.40;88.70;;;;;;4205644;28;19930;-50
2023/10/17 03:19:41;;;;;;;;;;;14.30;88.60;;;;;;4203448;28;19977;-50
2023/10/17 03:22:24;;;;;;;;;;;14.30;88.70;;;;;;4188528;28;19935;-49
2023/10/17 03:25:18;;;;;;;;;;;14.30;88.70;;;;;;4187417;28;19935;-53
2023/10/17 03:28:00;;;;;;;;;;;14.30;88.70;;;;;;4204149;28;19978;-52
2023/10/17 03:30:41;;;;;;;;;;;14.30;88.70;;;;;;4177051;28;19932;-52
2023/10/17 03:33:27;;;;;;;;;;;14.30;88.70;;;;;;4170460;28;19932;-54
2023/10/17 03:36:39;;;;;;;;;;;14.30;88.80;;;;;;4197284;28;19971;-51
2023/10/17 03:39:21;;;;;;;;;;;14.30;88.80;;;;;;4187622;28;19932;-54
2023/10/17 03:42:04;;;;;;;;;;;14.30;88.90;;;;;;4187697;28;19978;-53
2023/10/17 03:44:46;;;;;;;;;;;14.30;88.90;;;;;;4191306;28;19982;-51
2023/10/17 03:47:29;;;;;;;;;;;14.30;88.90;;;;;;4171387;28;19932;-54
2023/10/17 03:50:14;;;;;;;;;;;14.20;88.80;;;;;;4175072;28;19935;-54
2023/10/17 03:52:56;;;;;;;;;;;14.30;88.90;;;;;;4172020;28;19932;-54
2023/10/17 03:55:42;;;;;;;;;;;14.20;88.90;;;;;;4171738;28;19935;-57
2023/10/17 03:58:31;;;;;;;;;;;14.20;88.90;;;;;;4176314;28;19948;-58
2023/10/17 04:01:12;;;;;;;;;;;14.20;88.90;;;;;;4186620;28;20394;-58
2023/10/17 04:03:54;;;;;;;;;;;14.20;89.00;;;;;;4181058;28;19977;-58
2023/10/17 04:06:39;;;;;;;;;;;14.20;89.10;;;;;;4172758;28;20410;-58
2023/10/17 04:09:26;;;;;;;;;;;14.20;89.20;;;;;;4170689;28;19931;-59
2023/10/17 04:12:09;;;;;;;;;;;14.20;89.20;;;;;;4180831;28;19935;-58
2023/10/17 04:14:57;;;;;;;;;;;14.20;89.20;;;;;;4170236;28;20299;-58
2023/10/17 04:17:39;;;;;;;;;;;14.20;89.20;;;;;;4187260;28;19932;-51
2023/10/17 04:20:22;;;;;;;;;;;14.20;89.10;;;;;;4186877;28;19932;-50
2023/10/17 04:23:05;;;;;;;;;;;14.20;89.10;;;;;;4203155;28;20323;-49
2023/10/17 04:25:54;;;;;;;;;;;14.20;90.00;;;;;;4187254;28;20029;-50
2023/10/17 04:28:35;;;;;;;;;;;14.20;89.20;;;;;;4187433;28;19947;-49
2023/10/17 04:31:25;;;;;;;;;;;14.10;89.10;;;;;;4170463;28;19936;-49
2023/10/17 04:34:07;;;;;;;;;;;14.10;89.10;;;;;;4176543;28;19932;-49
2023/10/17 04:36:51;;;;;;;;;;;14.10;89.10;;;;;;4170878;28;19967;-52
2023/10/17 04:39:36;;;;;;;;;;;14.10;89.10;;;;;;4198882;28;19931;-51
2023/10/17 04:42:26;;;;;;;;;;;14.10;89.10;;;;;;4201358;28;19935;-50
2023/10/17 04:45:13;;;;;;;;;;;14.10;89.20;;;;;;4203650;28;19931;-49
2023/10/17 04:48:10;;;;;;;;;;;14.10;89.30;;;;;;4169548;28;19936;-57
2023/10/17 04:50:57;;;;;;;;;;;14.10;89.40;;;;;;4195829;28;20405;-58
2023/10/17 04:53:47;;;;;;;;;;;14.10;89.40;;;;;;4204126;28;20591;-57
2023/10/17 04:56:41;;;;;;;;;;;14.10;89.50;;;;;;4186324;28;19932;-58
2023/10/17 04:59:41;;;;;;;;;;;14.10;89.50;;;;;;4170933;28;20013;-57
2023/10/17 05:08:21;;;;;;;;;;;14.10;89.70;;;;;;4190403;28;19982;-49
2023/10/17 06:16:53;;;;;;;;;;;14.00;90.50;;;;;;4180295;28;19935;-60
2023/10/17 06:19:35;;;;;;;;;;;14.00;90.70;;;;;;4175643;28;19936;-60
2023/10/17 06:28:28;;;;;;;;;;;14.00;90.90;;;;;;4188736;28;19990;-48
2023/10/17 06:34:07;;;;;;;;;;;14.00;91.00;;;;;;4182227;28;19931;-49
2023/10/17 06:36:49;;;;;;;;;;;14.00;91.10;;;;;;4203372;28;19932;-49
2023/10/17 06:39:37;;;;;;;;;;;14.00;91.30;;;;;;4197396;28;20394;-52
2023/10/17 06:42:27;;;;;;;;;;;14.00;91.30;;;;;;4176178;28;19939;-53
2023/10/17 06:45:09;;;;;;;;;;;14.00;91.20;;;;;;4204547;28;19951;-57
2023/10/17 06:47:50;;;;;;;;;;;14.00;91.40;;;;;;4202148;28;20366;-56
2023/10/17 06:53:31;;;;;;;;;;;13.90;91.30;;;;;;4171470;28;20010;-57
2023/10/17 06:56:13;;;;;;;;;;;14.00;91.00;;;;;;4172222;28;20074;-56
2023/10/17 06:59:04;;;;;;;;;;;13.90;91.30;;;;;;4198617;28;19935;-56
2023/10/17 07:01:48;;;;;;;;;;;13.90;90.90;;;;;;4175945;28;19935;-56
2023/10/17 07:04:29;;;;;;;;;;;13.90;91.00;;;;;;4194061;28;19935;-56
2023/10/17 07:07:11;;;;;;;;;;;13.90;91.00;;;;;;4170573;28;19971;-53
2023/10/17 07:10:16;;;;;;;;;;;13.90;90.90;;;;;;4178722;28;19932;-53
2023/10/17 07:13:09;;;;;;;;;;;13.90;90.80;;;;;;4195973;28;19935;-55
2023/10/17 07:15:54;;;;;;;;;;;13.90;90.80;;;;;;4202820;28;19951;-56
2023/10/17 07:18:44;;;;;;;;;;;13.90;90.90;;;;;;4193177;28;19931;-47
2023/10/17 07:21:24;;;;;;;;;;;13.90;91.20;;;;;;4184133;28;20657;-48
2023/10/17 07:24:07;;;;;;;;;;;13.90;91.20;;;;;;4191807;28;20400;-51
2023/10/17 07:26:49;;;;;;;;;;;13.80;90.70;;;;;;4193523;28;19931;-49
2023/10/17 07:29:33;;;;;;;;;;;13.80;90.60;;;;;;4205010;28;19950;-51
2023/10/17 07:32:17;;;;;;;;;;;13.80;90.70;;;;;;4204312;28;20050;-47
2023/10/17 07:34:58;;;;;;;;;;;13.80;90.70;;;;;;4191847;28;19931;-47
2023/10/17 07:37:48;;;;;;;;;;;13.90;90.70;;;;;;4203483;27;19977;-47
2023/10/17 07:40:58;;;;;;;;;;;13.90;90.70;;;;;;4189122;28;19931;-53
2023/10/17 07:43:43;;;;;;;;;;;13.90;90.70;;;;;;4189648;28;20021;-56
2023/10/17 07:46:29;;;;;;;;;;;13.80;90.60;;;;;;4204930;28;19947;-56
2023/10/17 07:49:12;;;;;;;;;;;13.80;90.50;;;;;;4172262;28;19990;-56
2023/10/17 07:51:53;;;;;;;;;;;13.80;90.60;;;;;;4185964;28;19935;-57
2023/10/17 07:54:38;;;;;;;;;;;13.80;90.70;;;;;;4181112;28;20021;-56
2023/10/17 07:57:22;;;;;;;;;;;13.80;90.70;;;;;;4202586;28;19935;-55
2023/10/17 08:00:15;;;;;;;;;;;13.80;90.70;;;;;;4190988;28;19931;-56
2023/10/17 08:03:08;;;;;;;;;;;13.80;90.60;;;;;;4184865;28;19935;-55
2023/10/17 08:06:04;;;;;;;;;;;13.80;90.60;;;;;;4171743;28;19931;-57
2023/10/17 08:08:46;;;;;;;;;;;13.80;90.70;;;;;;4170658;28;19950;-56
2023/10/17 08:11:31;;;;;;;;;;;13.80;90.70;;;;;;4171627;28;19936;-54
2023/10/17 08:14:16;;;;;;;;;;;13.90;90.80;;;;;;4201633;28;19984;-53
2023/10/17 08:16:58;;;;;;;;;;;13.80;90.80;;;;;;4186539;28;19935;-55
2023/10/17 08:22:54;;;;;;;;;;;13.90;90.90;;;;;;4199779;28;19971;-55
2023/10/17 08:25:52;;;;;;;;;;;13.90;90.90;;;;;;4187549;28;20568;-47
2023/10/17 08:28:46;;;;;;;;;;;13.90;90.90;;;;;;4186876;28;20710;-47
2023/10/17 08:31:35;;;;;;;;;;;13.90;90.90;;;;;;4178087;28;19931;-46
2023/10/17 08:34:18;;;;;;;;;;;13.90;90.90;;;;;;4187780;28;19947;-47
2023/10/17 08:36:59;;;;;;;;;;;13.90;90.90;;;;;;4186425;28;19935;-48
2023/10/17 08:39:52;;;;;;;;;;;13.90;90.90;;;;;;4190479;28;19932;-49
2023/10/17 08:42:36;;;;;;;;;;;13.90;90.90;;;;;;4185937;28;19990;-49
2023/10/17 08:45:18;;;;;;;;;;;13.90;90.90;;;;;;4185438;28;20664;-51
2023/10/17 08:48:00;;;;;;;;;;;13.90;91.30;;;;;;4201760;28;20438;-48
2023/10/17 08:50:42;;;;;;;;;;;14.00;90.80;;;;;;4173853;28;19931;-49
2023/10/17 08:53:24;;;;;;;;;;;14.00;90.90;;;;;;4182895;28;20389;-49
2023/10/17 08:56:08;;;;;;;;;;;14.00;91.40;;;;;;4188357;28;19935;-52
2023/10/17 08:59:03;;;;;;;;;;;14.10;91.00;;;;;;4192315;28;20340;-50
2023/10/17 09:01:59;;;;;;;;;;;14.10;91.00;;;;;;4202087;28;20442;-51
2023/10/17 09:04:42;;;;;;;;;;;14.10;91.40;;;;;;4174974;28;19932;-47
2023/10/17 09:07:31;;;;;;;;;;;14.20;91.00;;;;;;4177658;28;19939;-47
2023/10/17 09:10:18;;;;;;;;;;;14.20;90.90;;;;;;4182654;28;19935;-48
2023/10/17 09:13:52;;;;;;;;;;;14.30;90.80;;;;;;4189786;28;20063;-47
2023/10/17 09:16:34;;;;;;;;;;;14.30;90.60;;;;;;4170899;28;19954;-49
2023/10/17 09:19:15;;;;;;;;;;;14.30;90.40;;;;;;4177558;28;19950;-49
2023/10/17 09:21:59;;;;;;;;;;;14.30;90.10;;;;;;4187445;28;20386;-49
2023/10/17 09:24:40;;;;;;;;;;;14.30;90.10;;;;;;4188648;28;20451;-50
2023/10/17 09:27:21;;;;;;;;;;;14.40;89.40;;;;;;4197915;28;20087;-49
2023/10/17 09:30:05;;;;;;;;;;;14.40;89.10;;;;;;4187762;28;19931;-48
2023/10/17 09:32:48;;;;;;;;;;;14.30;89.00;;;;;;4195393;28;19935;-57
2023/10/17 09:35:29;;;;;;;;;;;14.40;88.50;;;;;;4189678;28;19936;-53
2023/10/17 09:38:11;;;;;;;;;;;14.30;88.50;;;;;;4169765;28;19932;-54
2023/10/17 09:40:53;;;;;;;;;;;14.40;88.20;;;;;;4178049;28;19981;-55
2023/10/17 09:43:36;;;;;;;;;;;14.40;87.90;;;;;;4200691;28;19932;-54
2023/10/17 09:46:20;;;;;;;;;;;14.30;87.80;;;;;;4202994;28;19961;-54
2023/10/17 09:49:02;;;;;;;;;;;14.30;87.30;;;;;;4205266;28;19935;-56
2023/10/17 09:51:46;;;;;;;;;;;14.40;87.20;;;;;;4206253;28;20073;-56
2023/10/17 09:54:28;;;;;;;;;;;14.30;87.30;;;;;;4203540;28;20297;-52
2023/10/17 09:57:12;;;;;;;;;;;14.30;87.50;;;;;;4183207;28;19932;-53
2023/10/17 10:00:00;;;;;;;;;;;14.40;87.50;;;;;;4189314;28;19931;-52
2023/10/17 10:02:49;;;;;;;;;;;14.40;87.50;;;;;;4182754;28;19936;-56
2023/10/17 10:05:42;;;;;;;;;;;14.40;87.50;;;;;;4187807;28;20286;-55
2023/10/17 10:08:32;;;;;;;;;;;14.40;87.60;;;;;;4203887;28;20020;-55
2023/10/17 10:11:12;;;;;;;;;;;14.30;87.50;;;;;;4191186;28;20078;-55
2023/10/17 10:14:04;;;;;;;;;;;14.40;87.50;;;;;;4183983;28;19932;-55
2023/10/17 10:16:49;;;;;;;;;;;14.40;87.40;;;;;;4181286;28;20279;-56
2023/10/17 10:19:58;;;;;;;;;;;14.40;87.70;;;;;;4176858;28;20371;-54
2023/10/17 10:22:56;;;;;;;;;;;14.40;87.80;;;;;;4172507;28;19936;-55
2023/10/17 10:25:57;;;;;;;;;;;14.40;87.80;;;;;;4188537;28;20016;-54
2023/10/17 10:28:38;;;;;;;;;;;14.40;87.60;;;;;;4185824;28;19932;-55
2023/10/17 10:31:38;;;;;;;;;;;14.40;87.50;;;;;;4188989;28;19939;-55
2023/10/17 10:34:19;;;;;;;;;;;14.40;88.30;;;;;;4187736;28;19939;-53
2023/10/17 10:37:01;;;;;;;;;;;14.40;87.30;;;;;;4199405;28;19932;-52
2023/10/17 10:39:44;;;;;;;;;;;14.40;87.10;;;;;;4202525;28;19935;-54
2023/10/17 10:42:25;;;;;;;;;;;14.40;87.90;;;;;;4193902;28;19932;-52
2023/10/17 10:45:06;;;;;;;;;;;14.40;86.90;;;;;;4178372;28;20291;-54
2023/10/17 10:47:47;;;;;;;;;;;14.50;87.10;;;;;;4175166;28;19931;-56
2023/10/17 10:50:30;;;;;;;;;;;14.50;87.10;;;;;;4194361;28;20398;-56
2023/10/17 10:53:22;;;;;;;;;;;14.50;87.10;;;;;;4174360;28;19979;-55
2023/10/17 10:56:04;;;;;;;;;;;14.50;87.40;;;;;;4187089;28;20058;-52
2023/10/17 10:58:47;;;;;;;;;;;14.60;86.40;;;;;;4204817;28;20397;-60
2023/10/17 11:01:28;;;;;;;;;;;14.60;86.20;;;;;;4204154;28;19934;-60
2023/10/17 11:04:12;;;;;;;;;;;14.60;86.10;;;;;;4191339;28;20124;-62
2023/10/17 11:06:53;;;;;;;;;;;14.60;85.80;;;;;;4203424;28;19935;-50
2023/10/17 11:09:35;;;;;;;;;;;14.70;83.80;;;;;;4188392;28;20287;-51
2023/10/17 11:12:21;;;;;;;;;;;14.70;83.90;;;;;;4191325;28;20011;-53
2023/10/17 11:15:09;;;;;;;;;;;14.70;83.80;;;;;;4182496;28;20387;-52
2023/10/17 11:17:51;;;;;;;;;;;14.70;84.30;;;;;;4182314;28;20009;-49
2023/10/17 11:20:32;;;;;;;;;;;14.80;83.70;;;;;;4187052;28;20395;-49
2023/10/17 11:23:13;;;;;;;;;;;14.80;83.90;;;;;;4188963;28;19931;-49
2023/10/17 11:25:59;;;;;;;;;;;14.80;84.50;;;;;;4170592;28;19931;-46
2023/10/17 11:28:47;;;;;;;;;;;14.80;84.90;;;;;;4170984;28;20375;-56
2023/10/17 11:31:29;;;;;;;;;;;14.80;85.30;;;;;;4183867;28;19982;-56
2023/10/17 11:34:12;;;;;;;;;;;14.90;84.80;;;;;;4171769;28;20023;-60
2023/10/17 11:37:02;;;;;;;;;;;15.00;84.60;;;;;;4178931;28;19932;-59
2023/10/17 11:39:46;;;;;;;;;;;15.00;85.70;;;;;;4173061;28;20240;-60
2023/10/17 11:42:33;;;;;;;;;;;15.10;84.10;;;;;;4188636;28;19931;-60
2023/10/17 11:45:25;;;;;;;;;;;15.10;83.00;;;;;;4189270;28;20293;-59
2023/10/17 11:48:26;;;;;;;;;;;15.10;82.70;;;;;;4197846;28;19973;-60
2023/10/17 11:51:09;;;;;;;;;;;15.10;82.00;;;;;;4188233;28;20032;-59
2023/10/17 11:54:07;;;;;;;;;;;15.10;79.10;;;;;;4187097;28;20004;-61
2023/10/17 11:57:13;;;;;;;;;;;15.10;78.80;;;;;;4170300;28;19952;-59
2023/10/17 12:00:06;;;;;;;;;;;15.20;79.10;;;;;;4168754;28;19936;-60
2023/10/17 12:02:47;;;;;;;;;;;15.20;79.70;;;;;;4186342;28;20354;-56
2023/10/17 12:05:30;;;;;;;;;;;15.20;80.00;;;;;;4199381;28;19947;-60
2023/10/17 12:08:10;;;;;;;;;;;15.30;79.70;;;;;;4203320;28;19931;-59
2023/10/17 12:10:53;;;;;;;;;;;15.30;80.40;;;;;;4203066;28;19930;-63
2023/10/17 12:13:34;;;;;;;;;;;15.40;80.50;;;;;;4203694;28;19931;-61
2023/10/17 12:16:17;;;;;;;;;;;15.40;80.80;;;;;;4203777;28;19931;-60
2023/10/17 12:18:58;;;;;;;;;;;15.40;81.60;;;;;;4204316;28;20286;-59
2023/10/17 12:21:41;;;;;;;;;;;15.40;79.80;;;;;;4203563;28;20275;-59
2023/10/17 12:24:24;;;;;;;;;;;15.50;80.20;;;;;;4203652;28;19932;-60
2023/10/17 12:27:06;;;;;;;;;;;15.50;78.80;;;;;;4174997;28;19932;-60
2023/10/17 12:29:47;;;;;;;;;;;15.50;79.30;;;;;;4173792;28;19932;-60
2023/10/17 12:32:31;;;;;;;;;;;15.60;79.20;;;;;;4171647;28;20066;-56
2023/10/17 12:35:13;;;;;;;;;;;15.60;79.20;;;;;;4170700;28;19951;-61
2023/10/17 12:37:59;;;;;;;;;;;15.60;78.90;;;;;;4169082;28;19940;-62
2023/10/17 12:40:40;;;;;;;;;;;15.60;76.40;;;;;;4186393;28;19976;-61
2023/10/17 12:43:21;;;;;;;;;;;15.70;75.20;;;;;;4189401;28;19930;-62
2023/10/17 12:46:04;;;;;;;;;;;15.70;77.20;;;;;;4192190;28;19935;-62
2023/10/17 12:48:46;;;;;;;;;;;15.60;78.00;;;;;;4174723;28;19935;-61
2023/10/17 12:51:27;;;;;;;;;;;15.70;78.80;;;;;;4190007;28;19994;-62
2023/10/17 12:54:08;;;;;;;;;;;15.70;79.10;;;;;;4202413;28;19935;-62
2023/10/17 12:56:49;;;;;;;;;;;15.70;78.70;;;;;;4191814;28;20477;-62
2023/10/17 12:59:32;;;;;;;;;;;15.70;79.00;;;;;;4203230;28;20022;-62
2023/10/17 13:02:13;;;;;;;;;;;15.70;79.10;;;;;;4203039;28;19931;-62
2023/10/17 13:04:55;;;;;;;;;;;15.70;77.60;;;;;;4202161;28;19951;-62
2023/10/17 13:07:36;;;;;;;;;;;15.70;76.80;;;;;;4203503;28;19931;-62
2023/10/17 13:10:19;;;;;;;;;;;15.70;76.50;;;;;;4202630;28;19931;-62
2023/10/17 13:12:59;;;;;;;;;;;15.70;76.70;;;;;;4202911;28;20480;-62
2023/10/17 13:15:43;;;;;;;;;;;15.70;76.40;;;;;;4201711;28;19931;-61
2023/10/17 13:18:24;;;;;;;;;;;15.70;76.30;;;;;;4203707;28;20062;-62
2023/10/17 13:21:12;;;;;;;;;;;15.70;76.80;;;;;;4203165;28;19932;-62
2023/10/17 13:23:55;;;;;;;;;;;15.70;78.30;;;;;;4183618;28;20070;-62
2023/10/17 13:26:37;;;;;;;;;;;15.70;77.10;;;;;;4201314;28;19931;-62
2023/10/17 13:29:18;;;;;;;;;;;15.80;78.00;;;;;;4195780;28;20118;-62
2023/10/17 13:32:00;;;;;;;;;;;15.80;78.20;;;;;;4173828;28;19932;-62
2023/10/17 13:34:41;;;;;;;;;;;15.80;78.50;;;;;;4207146;28;19978;-62
2023/10/17 13:37:26;;;;;;;;;;;15.80;77.00;;;;;;4205721;28;19931;-62
2023/10/17 13:40:09;;;;;;;;;;;15.80;77.60;;;;;;4181747;28;19977;-62
2023/10/17 13:42:52;;;;;;;;;;;15.80;77.30;;;;;;4192731;28;19935;-61
2023/10/17 13:45:37;;;;;;;;;;;15.80;76.90;;;;;;4201693;28;19949;-56
2023/10/17 13:48:18;;;;;;;;;;;15.90;77.10;;;;;;4193808;28;19931;-49
2023/10/17 13:51:02;;;;;;;;;;;15.90;75.60;;;;;;4199385;28;20055;-48
2023/10/17 13:53:45;;;;;;;;;;;15.90;76.20;;;;;;4197131;28;19934;-50
2023/10/17 13:56:27;;;;;;;;;;;15.90;76.60;;;;;;4191964;28;20558;-50
2023/10/17 13:59:09;;;;;;;;;;;15.90;76.90;;;;;;4184030;28;19932;-50
2023/10/17 14:01:52;;;;;;;;;;;15.90;77.80;;;;;;4200006;28;19935;-51
2023/10/17 14:04:34;;;;;;;;;;;15.90;78.00;;;;;;4204952;28;19935;-51
2023/10/17 14:07:15;;;;;;;;;;;15.90;78.90;;;;;;4197660;28;20428;-50
2023/10/17 14:09:58;;;;;;;;;;;16.00;78.60;;;;;;4188846;28;19935;-48
2023/10/17 14:12:41;;;;;;;;;;;16.00;78.50;;;;;;4203353;28;19935;-51
2023/10/17 14:15:22;;;;;;;;;;;16.00;78.40;;;;;;4205608;28;19930;-51
2023/10/17 14:18:09;;;;;;;;;;;16.00;77.70;;;;;;4194042;28;19936;-50
2023/10/17 14:23:58;;;;;;;;;;;16.10;77.00;;;;;;4196355;28;19932;-50
2023/10/17 14:26:40;;;;;;;;;;;16.10;76.20;;;;;;4194649;28;19935;-51
2023/10/17 14:29:21;;;;;;;;;;;16.10;74.90;;;;;;4200948;28;19931;-53
2023/10/17 14:32:02;;;;;;;;;;;16.10;76.00;;;;;;4189134;28;20325;-48
2023/10/17 14:34:42;;;;;;;;;;;16.10;77.20;;;;;;4205464;28;20393;-49
2023/10/17 14:37:23;;;;;;;;;;;16.10;77.70;;;;;;4190198;28;19935;-50
2023/10/17 14:40:11;;;;;;;;;;;16.10;77.70;;;;;;4185818;28;19954;-51
2023/10/17 14:42:54;;;;;;;;;;;16.10;78.10;;;;;;4187026;28;19989;-50
2023/10/17 14:45:38;;;;;;;;;;;16.20;78.50;;;;;;4174402;28;19963;-48
2023/10/17 14:48:20;;;;;;;;;;;16.20;78.40;;;;;;4175603;28;20299;-50
2023/10/17 14:51:01;;;;;;;;;;;16.20;78.50;;;;;;4203757;28;19998;-53
2023/10/17 14:53:43;;;;;;;;;;;16.20;78.40;;;;;;4201889;28;20578;-50
2023/10/17 14:56:31;;;;;;;;;;;16.20;78.40;;;;;;4181736;28;20276;-49
2023/10/17 14:59:13;;;;;;;;;;;16.20;78.20;;;;;;4190409;28;19939;-53
2023/10/17 15:01:54;;;;;;;;;;;16.20;78.50;;;;;;4171005;28;19931;-49
2023/10/17 15:04:37;;;;;;;;;;;16.30;77.90;;;;;;4171558;28;19931;-50
2023/10/17 15:07:19;;;;;;;;;;;16.30;77.90;;;;;;4177143;28;19935;-57
2023/10/17 15:10:00;;;;;;;;;;;16.20;78.80;;;;;;4170067;28;20031;-52
2023/10/17 15:12:42;;;;;;;;;;;16.30;78.10;;;;;;4174343;28;19958;-63
2023/10/17 15:15:24;;;;;;;;;;;16.30;78.10;;;;;;4171573;28;20403;-63
2023/10/17 15:18:05;;;;;;;;;;;16.30;78.40;;;;;;4176749;28;20490;-63
2023/10/17 15:20:46;;;;;;;;;;;16.30;78.60;;;;;;4179194;28;19932;-63
2023/10/17 15:23:27;;;;;;;;;;;16.20;78.70;;;;;;4186346;28;20561;-62
2023/10/17 15:26:10;;;;;;;;;;;16.30;79.00;;;;;;4170450;28;19953;-62
2023/10/17 15:28:51;;;;;;;;;;;16.30;79.00;;;;;;4169602;28;19931;-61
2023/10/17 15:31:34;;;;;;;;;;;16.30;79.10;;;;;;4171452;28;19935;-61
2023/10/17 15:34:15;;;;;;;;;;;16.30;79.40;;;;;;4172733;28;20024;-61
2023/10/17 15:36:56;;;;;;;;;;;16.20;79.70;;;;;;4174541;28;19936;-61
2023/10/17 15:39:37;;;;;;;;;;;16.20;80.10;;;;;;4171204;28;20700;-61
2023/10/17 15:42:18;;;;;;;;;;;16.20;80.70;;;;;;4197734;28;20291;-62
2023/10/17 15:44:59;;;;;;;;;;;16.20;81.00;;;;;;4188028;28;20394;-62
2023/10/17 15:47:42;;;;;;;;;;;16.20;81.50;;;;;;4187779;28;19939;-62
2023/10/17 15:50:23;;;;;;;;;;;16.10;82.20;;;;;;4186849;28;19931;-61
2023/10/17 15:53:04;;;;;;;;;;;16.10;81.50;;;;;;4189861;28;19932;-61
2023/10/17 15:55:50;;;;;;;;;;;16.10;81.60;;;;;;4200599;28;20293;-62
2023/10/17 15:58:33;;;;;;;;;;;16.10;81.70;;;;;;4186378;28;19944;-62
2023/10/17 16:01:14;;;;;;;;;;;16.10;81.80;;;;;;4198773;28;20004;-62
2023/10/17 16:03:57;;;;;;;;;;;16.10;81.80;;;;;;4191663;28;19939;-62
2023/10/17 16:06:38;;;;;;;;;;;16.10;81.90;;;;;;4193565;28;19942;-62
2023/10/17 16:09:21;;;;;;;;;;;16.10;81.90;;;;;;4197555;28;19936;-62
2023/10/17 16:12:04;;;;;;;;;;;16.10;82.00;;;;;;4202547;28;19973;-61
2023/10/17 16:14:45;;;;;;;;;;;16.00;82.00;;;;;;4189014;28;19931;-61
2023/10/17 16:17:26;;;;;;;;;;;16.00;82.10;;;;;;4189052;28;19939;-60
2023/10/17 16:20:11;;;;;;;;;;;16.00;82.10;;;;;;4190794;28;19931;-62
2023/10/17 16:22:52;;;;;;;;;;;16.00;82.20;;;;;;4202429;28;19931;-62
2023/10/17 16:25:33;;;;;;;;;;;16.00;82.20;;;;;;4191487;28;19931;-62
2023/10/17 16:28:14;;;;;;;;;;;15.90;82.20;;;;;;4204245;28;19931;-61
2023/10/17 16:30:55;;;;;;;;;;;15.90;82.30;;;;;;4203028;28;20385;-60
2023/10/17 16:33:36;;;;;;;;;;;15.90;82.40;;;;;;4211026;28;19977;-61
2023/10/17 16:36:18;;;;;;;;;;;15.90;82.40;;;;;;4189904;28;19960;-59
2023/10/17 16:38:59;;;;;;;;;;;15.90;82.50;;;;;;4198805;28;20025;-60
2023/10/17 16:41:40;;;;;;;;;;;15.90;82.50;;;;;;4170525;28;19994;-61
2023/10/17 16:44:22;;;;;;;;;;;15.90;82.60;;;;;;4185469;28;20714;-60
2023/10/17 16:47:03;;;;;;;;;;;15.80;82.70;;;;;;4173546;28;20509;-61
2023/10/17 16:49:47;;;;;;;;;;;15.80;82.70;;;;;;4173989;28;19935;-61
2023/10/17 16:52:29;;;;;;;;;;;15.80;82.80;;;;;;4180541;28;19931;-60
2023/10/17 16:55:13;;;;;;;;;;;15.80;82.80;;;;;;4178999;28;19952;-61
2023/10/17 16:57:54;;;;;;;;;;;15.80;83.00;;;;;;4176907;28;20296;-59
2023/10/17 17:00:36;;;;;;;;;;;15.70;83.40;;;;;;4174126;28;20315;-55
2023/10/17 17:03:17;;;;;;;;;;;15.80;83.80;;;;;;4182258;28;20282;-56
2023/10/17 17:05:58;;;;;;;;;;;15.80;84.00;;;;;;4184879;28;20422;-57
2023/10/17 17:08:41;;;;;;;;;;;15.80;84.10;;;;;;4173823;28;20067;-56
2023/10/17 17:11:22;;;;;;;;;;;15.80;84.20;;;;;;4190937;28;19935;-57
2023/10/17 17:14:05;;;;;;;;;;;15.80;84.20;;;;;;4190128;28;19931;-55
2023/10/17 17:16:48;;;;;;;;;;;15.90;84.20;;;;;;4189145;28;19981;-55
2023/10/17 17:19:30;;;;;;;;;;;15.90;84.20;;;;;;4177735;28;19935;-59
2023/10/17 17:22:11;;;;;;;;;;;15.90;84.20;;;;;;4199611;28;20382;-58
2023/10/17 17:24:54;;;;;;;;;;;15.90;84.20;;;;;;4205139;28;19931;-58